createdAt,value
2023-05-22T00:01:08.354Z,10.40
2023-05-22T00:03:39.413Z,10.63
2023-05-22T00:06:20.976Z,11.53
2023-05-22T00:08:51.202Z,10.47
2023-05-22T00:11:21.398Z,10.23
2023-05-22T00:13:54.591Z,10.47
2023-05-22T00:16:28.908Z,10.17
2023-05-22T00:19:00.385Z,10.30
2023-05-22T00:21:29.865Z,9.97
2023-05-22T00:24:03.889Z,10.47
2023-05-22T00:26:41.082Z,10.10
2023-05-22T00:29:10.893Z,10.00
2023-05-22T00:31:43.332Z,10.90
2023-05-22T00:34:20.299Z,10.33
2023-05-22T00:36:49.278Z,10.47
2023-05-22T00:39:21.250Z,11.03
2023-05-22T00:41:50.411Z,12.67
2023-05-22T00:44:19.971Z,10.17
2023-05-22T00:46:55.040Z,11.77
2023-05-22T00:49:29.353Z,9.77
2023-05-22T00:52:01.138Z,10.57
2023-05-22T00:54:31.975Z,10.57
2023-05-22T00:57:01.747Z,9.80
2023-05-22T00:59:47.935Z,10.20
2023-05-22T01:02:21.022Z,9.80
2023-05-22T01:04:50.322Z,11.23
2023-05-22T01:07:19.901Z,10.20
2023-05-22T01:09:48.331Z,11.10
2023-05-22T01:12:22.075Z,10.50
2023-05-22T01:15:02.813Z,9.10
2023-05-22T01:17:38.204Z,10.10
2023-05-22T01:20:24.826Z,11.20
2023-05-22T01:23:59.648Z,10.10
2023-05-22T01:26:46.960Z,9.13
2023-05-22T01:29:46.838Z,10.27
2023-05-22T01:32:25.142Z,10.40
2023-05-22T01:34:59.353Z,10.13
2023-05-22T01:37:31.264Z,10.63
2023-05-22T01:40:01.779Z,10.17
2023-05-22T01:42:31.659Z,10.77
2023-05-22T01:45:02.371Z,10.80
2023-05-22T01:47:51.686Z,10.00
2023-05-22T01:50:21.194Z,10.47
2023-05-22T01:53:10.128Z,11.00
2023-05-22T01:55:45.605Z,9.93
2023-05-22T01:58:25.296Z,10.50
2023-05-22T02:00:58.844Z,9.63
2023-05-22T02:03:33.604Z,11.00
2023-05-22T02:06:06.511Z,10.57
2023-05-22T02:08:35.371Z,9.97
2023-05-22T02:11:06.730Z,9.63
2023-05-22T02:13:38.539Z,10.27
2023-05-22T02:16:16.297Z,10.83
2023-05-22T02:19:03.786Z,11.00
2023-05-22T02:21:34.650Z,11.40
2023-05-22T02:24:07.413Z,10.93
2023-05-22T02:26:42.260Z,10.00
2023-05-22T02:29:13.385Z,11.73
2023-05-22T02:31:47.700Z,9.30
2023-05-22T02:34:31.707Z,9.80
2023-05-22T02:37:03.725Z,11.17
2023-05-22T02:39:36.445Z,9.50
2023-05-22T02:42:08.116Z,9.50
2023-05-22T02:44:37.559Z,9.47
2023-05-22T02:47:10.140Z,9.70
2023-05-22T02:49:40.824Z,10.60
2023-05-22T02:52:09.597Z,8.87
2023-05-22T02:54:39.145Z,9.60
2023-05-22T02:57:11.435Z,9.70
2023-05-22T02:59:42.634Z,8.83
2023-05-22T03:02:19.534Z,10.17
2023-05-22T03:04:54.379Z,9.80
2023-05-22T03:07:24.618Z,8.33
2023-05-22T03:09:56.273Z,8.90
2023-05-22T03:12:26.264Z,8.97
2023-05-22T03:14:56.489Z,9.90
2023-05-22T03:17:26.058Z,9.13
2023-05-22T03:19:58.303Z,9.33
2023-05-22T03:22:30.234Z,9.60
2023-05-22T03:25:00.888Z,9.60
2023-05-22T03:27:31.516Z,9.60
2023-05-22T03:30:02.581Z,9.10
2023-05-22T03:32:37.155Z,9.93
2023-05-22T03:35:15.388Z,10.10
2023-05-22T03:37:44.926Z,8.80
2023-05-22T03:40:18.368Z,8.97
2023-05-22T03:42:50.066Z,9.50
2023-05-22T03:45:27.742Z,9.77
2023-05-22T03:48:01.493Z,10.43
2023-05-22T03:50:35.661Z,9.23
2023-05-22T03:53:05.956Z,9.90
2023-05-22T03:55:36.638Z,9.80
2023-05-22T03:58:14.700Z,9.70
2023-05-22T04:00:52.349Z,9.83
2023-05-22T04:03:28.791Z,8.90
2023-05-22T04:06:03.985Z,9.40
2023-05-22T04:08:34.826Z,9.67
2023-05-22T04:11:05.510Z,9.47
2023-05-22T04:13:34.443Z,10.27
2023-05-22T04:16:08.491Z,9.53
2023-05-22T04:18:45.387Z,10.27
2023-05-22T04:21:19.138Z,9.37
2023-05-22T04:23:51.191Z,9.40
2023-05-22T04:26:22.643Z,9.60
2023-05-22T04:28:52.446Z,9.70
2023-05-22T04:31:24.214Z,9.10
2023-05-22T04:34:04.851Z,10.17
2023-05-22T04:36:38.952Z,9.17
2023-05-22T04:39:08.163Z,9.70
2023-05-22T04:41:39.139Z,9.13
2023-05-22T04:44:09.846Z,9.57
2023-05-22T04:46:41.170Z,9.63
2023-05-22T04:49:19.917Z,9.60
2023-05-22T04:51:57.001Z,9.23
2023-05-22T04:54:26.520Z,8.60
2023-05-22T04:56:58.901Z,8.20
2023-05-22T04:59:29.165Z,8.87
2023-05-22T05:01:58.079Z,7.73
2023-05-22T05:04:34.856Z,8.97
2023-05-22T05:07:06.592Z,8.30
2023-05-22T05:09:38.029Z,8.70
2023-05-22T05:12:08.116Z,8.20
2023-05-22T05:14:41.604Z,9.43
2023-05-22T05:17:19.316Z,8.50
2023-05-22T05:19:59.919Z,8.97
2023-05-22T05:22:42.764Z,8.33
2023-05-22T05:25:20.535Z,8.57
2023-05-22T05:27:59.209Z,9.03
2023-05-22T05:30:38.660Z,9.00
2023-05-22T05:33:17.482Z,9.10
2023-05-22T05:36:28.662Z,9.40
2023-05-22T05:39:01.380Z,9.20
2023-05-22T05:41:38.415Z,9.40
2023-05-22T05:44:13.759Z,9.00
2023-05-22T05:46:48.286Z,10.73
2023-05-22T05:49:24.960Z,9.37
2023-05-22T05:52:05.513Z,9.70
2023-05-22T05:54:39.782Z,8.53
2023-05-22T05:57:19.322Z,9.30
2023-05-22T05:59:50.550Z,8.53
2023-05-22T06:02:44.161Z,8.27
2023-05-22T06:05:48.106Z,8.97
2023-05-22T06:08:44.232Z,9.10
2023-05-22T06:11:23.757Z,8.17
2023-05-22T06:13:59.771Z,8.40
2023-05-22T06:16:30.130Z,8.67
2023-05-22T06:19:10.774Z,8.80
2023-05-22T06:21:45.244Z,8.77
2023-05-22T06:24:18.735Z,8.50
2023-05-22T06:26:53.302Z,7.20
2023-05-22T06:29:22.964Z,8.47
2023-05-22T06:31:55.769Z,7.80
2023-05-22T06:34:28.098Z,8.10
2023-05-22T06:37:06.688Z,7.30
2023-05-22T06:39:46.123Z,7.30
2023-05-22T06:42:34.142Z,6.67
2023-05-22T06:45:23.859Z,6.57
2023-05-22T06:48:12.124Z,6.50
2023-05-22T06:51:02.130Z,6.50
2023-05-22T06:53:46.929Z,6.60
2023-05-22T06:56:19.897Z,6.10
2023-05-22T06:59:06.569Z,7.87
2023-05-22T07:01:57.082Z,7.93
2023-05-22T07:04:53.735Z,8.40
2023-05-22T07:07:54.742Z,7.60
2023-05-22T07:10:27.829Z,8.07
2023-05-22T07:13:06.919Z,8.60
2023-05-22T07:15:41.145Z,8.07
2023-05-22T07:18:10.377Z,8.83
2023-05-22T07:20:45.608Z,8.30
2023-05-22T07:23:20.144Z,8.50
2023-05-22T07:25:58.735Z,8.20
2023-05-22T07:28:36.767Z,7.63
2023-05-22T07:31:19.152Z,8.20
2023-05-22T07:33:52.228Z,7.57
2023-05-22T07:36:23.905Z,7.57
2023-05-22T07:38:55.523Z,8.13
2023-05-22T07:41:39.678Z,7.70
2023-05-22T07:44:19.153Z,9.43
2023-05-22T07:46:58.700Z,7.57
2023-05-22T07:49:34.814Z,7.23
2023-05-22T07:52:12.369Z,8.10
2023-05-22T07:54:46.799Z,8.40
2023-05-22T07:57:16.978Z,8.03
2023-05-22T07:59:55.938Z,7.20
2023-05-22T08:02:28.801Z,6.80
2023-05-22T08:04:57.462Z,7.67
2023-05-22T08:07:28.619Z,6.20
2023-05-22T08:10:00.395Z,6.43
2023-05-22T08:12:37.393Z,6.90
2023-05-22T08:15:11.006Z,6.67
2023-05-22T08:17:45.556Z,6.93
2023-05-22T08:20:15.578Z,6.40
2023-05-22T08:25:34.690Z,5.40
2023-05-22T08:28:12.217Z,6.10
2023-05-22T08:30:44.611Z,5.90
2023-05-22T08:33:19.119Z,6.87
2023-05-22T08:35:51.576Z,6.53
2023-05-22T08:38:24.877Z,6.90
2023-05-22T08:41:03.138Z,6.20
2023-05-22T08:43:31.946Z,6.20
2023-05-22T08:46:06.896Z,6.87
2023-05-22T08:48:39.307Z,6.00
2023-05-22T08:51:25.992Z,6.37
2023-05-22T08:53:58.493Z,6.87
2023-05-22T08:56:29.741Z,6.40
2023-05-22T08:59:09.306Z,6.60
2023-05-22T09:01:40.311Z,6.33
2023-05-22T09:04:18.529Z,6.20
2023-05-22T09:06:50.654Z,6.60
2023-05-22T09:09:21.602Z,5.90
2023-05-22T09:11:51.905Z,6.47
2023-05-22T09:14:20.239Z,6.17
2023-05-22T09:16:53.215Z,5.87
2023-05-22T09:19:32.483Z,5.83
2023-05-22T09:22:11.846Z,6.43
2023-05-22T09:24:45.603Z,6.83
2023-05-22T09:27:22.904Z,6.20
2023-05-22T09:29:54.088Z,6.30
2023-05-22T09:32:24.894Z,6.80
2023-05-22T09:35:04.803Z,6.60
2023-05-22T09:37:51.915Z,6.40
2023-05-22T09:40:20.234Z,6.30
2023-05-22T09:42:55.551Z,6.70
2023-05-22T09:45:35.185Z,7.03
2023-05-22T09:48:11.332Z,6.10
2023-05-22T09:50:43.222Z,6.87
2023-05-22T09:53:22.818Z,6.53
2023-05-22T09:56:00.708Z,6.73
2023-05-22T09:58:44.681Z,6.70
2023-05-22T10:01:17.802Z,6.33
2023-05-22T10:03:55.821Z,7.17
2023-05-22T10:06:34.065Z,6.97
2023-05-22T10:09:05.428Z,7.10
2023-05-22T10:11:40.443Z,7.10
2023-05-22T10:14:14.636Z,6.30
2023-05-22T10:16:55.486Z,7.20
2023-05-22T10:19:27.906Z,6.80
2023-05-22T10:22:01.974Z,6.13
2023-05-22T10:24:33.237Z,6.33
2023-05-22T10:27:07.224Z,6.10
2023-05-22T10:29:45.056Z,5.57
2023-05-22T10:32:31.374Z,5.20
2023-05-22T10:35:15.510Z,5.67
2023-05-22T10:37:59.756Z,5.20
2023-05-22T10:40:42.501Z,5.23
2023-05-22T10:43:12.776Z,8.00
2023-05-22T10:45:45.410Z,7.60
2023-05-22T10:48:28.895Z,5.40
2023-05-22T10:51:00.001Z,5.03
2023-05-22T10:53:42.023Z,5.70
2023-05-22T10:56:19.948Z,4.83
2023-05-22T10:59:05.758Z,5.20
2023-05-22T11:01:46.032Z,5.43
2023-05-22T11:04:29.487Z,5.20
2023-05-22T11:07:05.449Z,5.07
2023-05-22T11:09:48.343Z,5.03
2023-05-22T11:12:35.529Z,5.17
2023-05-22T11:15:09.684Z,4.60
2023-05-22T11:17:51.274Z,4.60
2023-05-22T11:20:25.552Z,4.90
2023-05-22T11:22:59.811Z,4.70
2023-05-22T11:25:31.059Z,4.73
2023-05-22T11:28:07.514Z,5.20
2023-05-22T11:30:39.402Z,5.00
2023-05-22T11:33:09.940Z,5.17
2023-05-22T11:35:43.501Z,4.90
2023-05-22T11:38:13.027Z,5.20
2023-05-22T11:40:45.219Z,5.50
2023-05-22T11:43:18.745Z,5.40
2023-05-22T11:45:50.320Z,5.60
2023-05-22T11:48:28.670Z,5.50
2023-05-22T11:51:02.843Z,4.57
2023-05-22T11:53:36.355Z,4.63
2023-05-22T11:56:09.500Z,5.23
2023-05-22T11:58:52.368Z,4.87
2023-05-22T12:01:26.518Z,5.10
2023-05-22T12:03:56.335Z,5.53
2023-05-22T12:06:33.346Z,5.10
2023-05-22T12:09:02.850Z,4.50
2023-05-22T12:11:38.165Z,4.60
2023-05-22T12:14:17.838Z,4.80
2023-05-22T12:16:55.173Z,3.90
2023-05-22T12:19:26.012Z,5.00
2023-05-22T12:21:58.887Z,4.90
2023-05-22T12:24:27.153Z,4.33
2023-05-22T12:27:08.473Z,4.37
2023-05-22T12:29:45.370Z,4.70
2023-05-22T12:32:20.389Z,4.73
2023-05-22T12:34:58.234Z,4.53
2023-05-22T12:37:41.033Z,4.50
2023-05-22T12:40:18.611Z,4.43
2023-05-22T12:42:52.969Z,4.40
2023-05-22T12:45:33.341Z,4.50
2023-05-22T12:48:03.406Z,5.30
2023-05-22T12:50:34.401Z,5.00
2023-05-22T12:53:11.367Z,4.53
2023-05-22T12:55:41.394Z,4.00
2023-05-22T12:58:19.693Z,4.40
2023-05-22T13:00:53.855Z,4.10
2023-05-22T13:03:24.757Z,5.00
2023-05-22T13:05:55.616Z,4.53
2023-05-22T13:08:33.018Z,4.13
2023-05-22T13:11:03.978Z,4.10
2023-05-22T13:13:33.620Z,4.80
2023-05-22T13:16:19.667Z,4.60
2023-05-22T13:19:00.701Z,4.53
2023-05-22T13:21:31.568Z,4.13
2023-05-22T13:24:06.881Z,4.40
2023-05-22T13:26:42.625Z,4.47
2023-05-22T13:29:15.777Z,4.53
2023-05-22T13:31:49.216Z,4.00
2023-05-22T13:34:25.139Z,4.57
2023-05-22T13:37:02.451Z,4.07
2023-05-22T13:39:42.488Z,4.60
2023-05-22T13:42:13.509Z,5.40
2023-05-22T13:44:45.160Z,4.10
2023-05-22T13:47:17.483Z,4.67
2023-05-22T13:49:55.487Z,4.87
2023-05-22T13:52:25.967Z,4.27
2023-05-22T13:54:56.241Z,4.40
2023-05-22T13:57:30.072Z,4.50
2023-05-22T13:59:59.322Z,4.80
2023-05-22T14:02:38.005Z,4.67
2023-05-22T14:05:06.804Z,4.60
2023-05-22T14:07:37.410Z,4.20
2023-05-22T14:10:06.682Z,4.70
2023-05-22T14:12:38.305Z,4.10
2023-05-22T14:15:08.758Z,4.10
2023-05-22T14:17:40.741Z,4.57
2023-05-22T14:20:19.630Z,4.57
2023-05-22T14:22:57.749Z,4.50
2023-05-22T14:25:32.834Z,3.90
2023-05-22T14:28:10.267Z,4.23
2023-05-22T14:30:39.804Z,4.10
2023-05-22T14:33:18.071Z,4.67
2023-05-22T14:36:03.779Z,4.40
2023-05-22T14:38:44.407Z,4.80
2023-05-22T14:41:12.429Z,4.43
2023-05-22T14:43:41.725Z,4.20
2023-05-22T14:46:19.590Z,4.37
2023-05-22T14:48:53.365Z,4.33
2023-05-22T14:51:35.990Z,4.13
2023-05-22T14:54:15.748Z,4.63
2023-05-22T14:56:50.304Z,4.43
2023-05-22T14:59:24.372Z,4.60
2023-05-22T15:01:55.811Z,4.10
2023-05-22T15:04:33.376Z,4.30
2023-05-22T15:07:07.227Z,4.50
2023-05-22T15:09:38.875Z,4.03
2023-05-22T15:12:08.041Z,4.33
2023-05-22T15:14:50.272Z,4.43
2023-05-22T15:17:22.295Z,4.80
2023-05-22T15:19:51.995Z,4.50
2023-05-22T15:22:22.705Z,4.50
2023-05-22T15:25:08.009Z,4.60
2023-05-22T15:27:40.736Z,3.93
2023-05-22T15:30:22.177Z,4.30
2023-05-22T15:32:55.718Z,3.80
2023-05-22T15:35:39.888Z,4.40
2023-05-22T15:38:18.912Z,4.27
2023-05-22T15:40:50.467Z,4.33
2023-05-22T15:43:20.332Z,4.50
2023-05-22T15:45:52.364Z,4.10
2023-05-22T15:48:21.239Z,3.87
2023-05-22T15:50:53.450Z,4.50
2023-05-22T15:53:23.928Z,3.97
2023-05-22T15:55:52.422Z,4.47
2023-05-22T15:58:40.008Z,4.27
2023-05-22T16:01:12.413Z,4.17
2023-05-22T16:03:46.354Z,4.40
2023-05-22T16:06:24.470Z,4.50
2023-05-22T16:08:53.732Z,4.57
2023-05-22T16:11:31.347Z,4.00
2023-05-22T16:14:05.607Z,3.80
2023-05-22T16:16:39.557Z,4.70
2023-05-22T16:19:11.941Z,4.00
2023-05-22T16:21:52.331Z,3.63
2023-05-22T16:24:21.018Z,4.63
2023-05-22T16:29:40.178Z,4.17
2023-05-22T16:32:10.940Z,4.70
2023-05-22T16:34:48.114Z,4.20
2023-05-22T16:37:22.291Z,4.60
2023-05-22T16:39:52.481Z,4.43
2023-05-22T16:42:23.915Z,4.53
2023-05-22T16:45:00.826Z,4.33
2023-05-22T16:47:33.391Z,4.57
2023-05-22T16:50:06.321Z,4.80
2023-05-22T16:52:38.790Z,4.37
2023-05-22T16:55:09.536Z,4.30
2023-05-22T16:57:42.227Z,3.80
2023-05-22T17:00:14.957Z,4.70
2023-05-22T17:02:47.315Z,4.70
2023-05-22T17:05:17.316Z,4.67
2023-05-22T17:07:55.339Z,4.07
2023-05-22T17:10:30.295Z,4.40
2023-05-22T17:13:03.168Z,4.87
2023-05-22T17:15:47.246Z,4.30
2023-05-22T17:18:25.851Z,5.07
2023-05-22T17:20:58.592Z,4.53
2023-05-22T17:23:33.540Z,4.33
2023-05-22T17:26:07.774Z,5.13
2023-05-22T17:28:38.659Z,4.23
2023-05-22T17:31:13.705Z,4.60
2023-05-22T17:33:50.448Z,5.27
2023-05-22T17:36:21.476Z,4.30
2023-05-22T17:39:01.737Z,5.17
2023-05-22T17:41:39.605Z,5.93
2023-05-22T17:44:12.596Z,5.10
2023-05-22T17:46:57.380Z,5.47
2023-05-22T17:49:28.731Z,5.57
2023-05-22T17:52:06.325Z,5.40
2023-05-22T17:54:42.464Z,4.70
2023-05-22T17:57:16.461Z,5.47
2023-05-22T17:59:54.334Z,4.87
2023-05-22T18:02:24.182Z,5.83
2023-05-22T18:04:58.868Z,5.43
2023-05-22T18:07:28.817Z,5.60
2023-05-22T18:10:06.944Z,5.30
2023-05-22T18:12:46.521Z,5.13
2023-05-22T18:15:30.644Z,5.63
2023-05-22T18:18:05.144Z,5.27
2023-05-22T18:20:40.616Z,4.93
2023-05-22T18:23:15.311Z,4.60
2023-05-22T18:25:56.762Z,5.40
2023-05-22T18:28:34.629Z,5.43
2023-05-22T18:31:19.273Z,5.30
2023-05-22T18:33:52.083Z,5.33
2023-05-22T18:36:22.783Z,5.63
2023-05-22T18:39:04.912Z,5.53
2023-05-22T18:41:45.268Z,5.17
2023-05-22T18:44:25.240Z,4.60
2023-05-22T18:46:57.804Z,5.43
2023-05-22T18:49:27.320Z,5.67
2023-05-22T18:52:13.873Z,5.60
2023-05-22T18:54:45.869Z,5.60
2023-05-22T18:57:30.927Z,5.57
2023-05-22T19:00:21.872Z,5.53
2023-05-22T19:03:04.386Z,5.47
2023-05-22T19:05:33.908Z,6.27
2023-05-22T19:08:05.130Z,5.97
2023-05-22T19:10:36.582Z,6.07
2023-05-22T19:13:11.975Z,6.57
2023-05-22T19:15:44.009Z,6.00
2023-05-22T19:18:14.765Z,6.40
2023-05-22T19:20:49.658Z,6.20
2023-05-22T19:23:22.516Z,6.67
2023-05-22T19:25:58.704Z,6.73
2023-05-22T19:28:33.960Z,6.67
2023-05-22T19:31:10.167Z,6.00
2023-05-22T19:33:50.238Z,6.80
2023-05-22T19:36:23.785Z,5.70
2023-05-22T19:38:55.764Z,6.57
2023-05-22T19:41:29.902Z,6.80
2023-05-22T19:44:08.708Z,6.70
2023-05-22T19:46:39.581Z,6.90
2023-05-22T19:49:10.512Z,6.73
2023-05-22T19:51:42.723Z,7.00
2023-05-22T19:54:13.678Z,6.33
2023-05-22T19:56:45.374Z,7.40
2023-05-22T19:59:20.930Z,8.27
2023-05-22T20:01:53.408Z,7.10
2023-05-22T20:04:31.097Z,7.00
2023-05-22T20:07:05.337Z,6.47
2023-05-22T20:09:40.763Z,6.73
2023-05-22T20:12:16.903Z,6.20
2023-05-22T20:14:59.057Z,7.23
2023-05-22T20:17:31.554Z,6.80
2023-05-22T20:20:10.959Z,6.10
2023-05-22T20:22:42.841Z,6.30
2023-05-22T20:25:20.336Z,6.50
2023-05-22T20:27:51.053Z,6.60
2023-05-22T20:30:34.222Z,7.00
2023-05-22T20:33:04.714Z,7.33
2023-05-22T20:35:41.350Z,6.90
2023-05-22T20:38:15.594Z,7.10
2023-05-22T20:40:47.001Z,6.03
2023-05-22T20:43:19.000Z,6.00
2023-05-22T20:46:01.367Z,5.97
2023-05-22T20:48:31.585Z,5.90
2023-05-22T20:51:01.042Z,6.33
2023-05-22T20:53:38.226Z,6.10
2023-05-22T20:56:12.207Z,5.50
2023-05-22T20:58:48.802Z,6.93
2023-05-22T21:01:20.796Z,5.80
2023-05-22T21:04:01.101Z,6.10
2023-05-22T21:06:33.323Z,6.60
2023-05-22T21:09:04.370Z,5.87
2023-05-22T21:11:38.745Z,6.07
2023-05-22T21:14:11.467Z,6.33
2023-05-22T21:16:50.925Z,6.37
2023-05-22T21:19:28.283Z,5.80
2023-05-22T21:21:59.551Z,6.63
2023-05-22T21:24:35.937Z,6.90
2023-05-22T21:27:05.118Z,6.23
2023-05-22T21:29:35.670Z,6.43
2023-05-22T21:32:13.132Z,6.60
2023-05-22T21:34:44.954Z,6.83
2023-05-22T21:37:19.494Z,6.23
2023-05-22T21:39:51.490Z,5.80
2023-05-22T21:42:34.776Z,6.10
2023-05-22T21:45:15.313Z,6.97
2023-05-22T21:47:57.820Z,6.70
2023-05-22T21:50:27.649Z,6.13
2023-05-22T21:53:04.150Z,7.07
2023-05-22T21:55:36.050Z,6.53
2023-05-22T21:58:13.742Z,7.20
2023-05-22T22:00:46.995Z,6.27
2023-05-22T22:03:23.603Z,6.67
2023-05-22T22:06:03.089Z,6.60
2023-05-22T22:08:31.917Z,6.00
2023-05-22T22:11:00.984Z,6.70
2023-05-22T22:13:28.977Z,6.83
2023-05-22T22:15:59.838Z,7.40
2023-05-22T22:18:33.555Z,6.63
2023-05-22T22:21:05.397Z,6.10
2023-05-22T22:23:36.967Z,7.53
2023-05-22T22:26:17.581Z,7.33
2023-05-22T22:28:47.020Z,6.87
2023-05-22T22:31:17.423Z,7.53
2023-05-22T22:33:59.618Z,7.10
2023-05-22T22:36:31.717Z,7.03
2023-05-22T22:39:02.489Z,8.00
2023-05-22T22:41:34.324Z,8.10
2023-05-22T22:44:05.297Z,7.20
2023-05-22T22:46:36.990Z,7.67
2023-05-22T22:49:09.224Z,6.80
2023-05-22T22:51:39.756Z,7.40
2023-05-22T22:54:13.514Z,7.30
2023-05-22T22:56:52.438Z,8.07
2023-05-22T22:59:24.484Z,8.17
2023-05-22T23:01:56.247Z,7.47
2023-05-22T23:04:28.356Z,7.87
2023-05-22T23:07:05.377Z,8.50
2023-05-22T23:09:41.146Z,7.77
2023-05-22T23:12:14.244Z,8.40
2023-05-22T23:14:48.070Z,8.87
2023-05-22T23:17:19.713Z,8.07
2023-05-22T23:19:49.931Z,8.00
2023-05-22T23:22:20.780Z,8.50
2023-05-22T23:24:54.246Z,7.70
2023-05-22T23:27:31.960Z,8.30
2023-05-22T23:30:05.004Z,7.90
2023-05-22T23:32:41.889Z,8.33
2023-05-22T23:35:14.279Z,7.20
2023-05-22T23:37:43.293Z,8.70
2023-05-22T23:40:13.609Z,7.93
2023-05-22T23:42:45.064Z,8.30
2023-05-22T23:45:19.032Z,7.67
2023-05-22T23:47:49.562Z,8.00
2023-05-22T23:50:24.265Z,7.90
2023-05-22T23:52:53.432Z,8.03
2023-05-22T23:55:24.002Z,7.80
2023-05-22T23:57:54.257Z,8.20
